createdAt,value
2023-03-13T00:02:36.421Z,97671.73
2023-03-13T00:05:38.114Z,97667.69
2023-03-13T00:08:40.550Z,97667.77
2023-03-13T00:11:43.818Z,97672.14
2023-03-13T00:14:45.601Z,97673.57
2023-03-13T00:17:47.274Z,97667.80
2023-03-13T00:20:49.981Z,97658.55
2023-03-13T00:23:52.069Z,97645.31
2023-03-13T00:26:54.839Z,97644.36
2023-03-13T00:29:56.520Z,97640.14
2023-03-13T00:32:58.435Z,97629.31
2023-03-13T00:36:03.194Z,97625.66
2023-03-13T00:39:06.734Z,97621.38
2023-03-13T00:42:09.509Z,97618.10
2023-03-13T00:45:11.267Z,97625.97
2023-03-13T00:48:12.982Z,97621.52
2023-03-13T00:51:16.613Z,97616.48
2023-03-13T00:54:18.337Z,97615.09
2023-03-13T00:57:20.094Z,97615.72
2023-03-13T01:00:21.948Z,97617.13
2023-03-13T01:03:27.259Z,97618.15
2023-03-13T01:06:30.959Z,97619.33
2023-03-13T01:09:33.063Z,97625.56
2023-03-13T01:12:34.856Z,97627.29
2023-03-13T01:15:36.673Z,97634.23
2023-03-13T01:18:41.647Z,97632.06
2023-03-13T01:21:45.209Z,97630.20
2023-03-13T01:24:51.610Z,97628.56
2023-03-13T01:27:53.342Z,97621.88
2023-03-13T01:30:56.268Z,97625.54
2023-03-13T01:34:00.861Z,97628.66
2023-03-13T01:37:02.929Z,97631.02
2023-03-13T01:40:05.052Z,97630.54
2023-03-13T01:43:27.190Z,97625.24
2023-03-13T01:46:30.811Z,97626.98
2023-03-13T01:49:39.892Z,97625.25
2023-03-13T01:52:45.932Z,97624.23
2023-03-13T01:55:55.022Z,97627.43
2023-03-13T01:58:58.703Z,97629.08
2023-03-13T02:02:04.045Z,97630.64
2023-03-13T02:05:06.950Z,97625.50
2023-03-13T02:08:18.438Z,97627.84
2023-03-13T02:11:34.811Z,97626.98
2023-03-13T02:14:40.563Z,97631.51
2023-03-13T02:17:43.991Z,97638.11
2023-03-13T02:20:47.471Z,97637.73
2023-03-13T02:24:09.287Z,97644.27
2023-03-13T02:27:11.713Z,97646.69
2023-03-13T02:30:14.751Z,97652.77
2023-03-13T02:33:19.173Z,97659.08
2023-03-13T02:36:22.120Z,97663.06
2023-03-13T02:39:25.765Z,97659.10
2023-03-13T02:42:28.857Z,97656.52
2023-03-13T02:45:30.720Z,97658.56
2023-03-13T02:48:45.145Z,97660.60
2023-03-13T02:51:47.484Z,97660.92
2023-03-13T02:54:54.502Z,97667.92
2023-03-13T02:57:56.516Z,97670.27
2023-03-13T03:01:06.985Z,97668.56
2023-03-13T03:04:09.628Z,97667.94
2023-03-13T03:07:11.411Z,97669.89
2023-03-13T03:10:13.881Z,97673.10
2023-03-13T03:13:15.848Z,97670.06
2023-03-13T03:16:20.726Z,97670.85
2023-03-13T03:19:22.500Z,97675.00
2023-03-13T03:22:24.266Z,97676.48
2023-03-13T03:25:26.842Z,97676.58
2023-03-13T03:28:29.194Z,97677.52
2023-03-13T03:31:31.384Z,97680.43
2023-03-13T03:34:33.634Z,97682.00
2023-03-13T03:37:35.607Z,97673.34
2023-03-13T03:40:37.707Z,97671.02
2023-03-13T03:43:39.711Z,97672.59
2023-03-13T03:46:41.925Z,97671.18
2023-03-13T03:49:43.758Z,97669.70
2023-03-13T03:52:46.316Z,97664.79
2023-03-13T03:55:48.203Z,97660.27
2023-03-13T03:58:50.290Z,97662.92
2023-03-13T04:02:04.071Z,97658.86
2023-03-13T04:05:06.916Z,97658.07
2023-03-13T04:08:10.339Z,97664.94
2023-03-13T04:11:12.193Z,97669.92
2023-03-13T04:14:16.968Z,97663.37
2023-03-13T04:17:19.722Z,97665.46
2023-03-13T04:20:21.788Z,97665.38
2023-03-13T04:23:23.630Z,97671.40
2023-03-13T04:26:27.039Z,97672.10
2023-03-13T04:29:30.461Z,97673.83
2023-03-13T04:32:58.144Z,97679.45
2023-03-13T04:36:32.209Z,97677.27
2023-03-13T04:39:43.762Z,97681.20
2023-03-13T04:43:12.473Z,97682.21
2023-03-13T04:46:17.810Z,97675.36
2023-03-13T04:49:35.163Z,97666.33
2023-03-13T04:53:09.090Z,97669.93
2023-03-13T04:56:42.643Z,97663.23
2023-03-13T05:00:07.541Z,97652.25
2023-03-13T05:03:17.009Z,97649.83
2023-03-13T05:06:28.818Z,97644.20
2023-03-13T05:09:48.898Z,97637.56
2023-03-13T05:13:11.642Z,97635.16
2023-03-13T05:16:31.692Z,97636.17
2023-03-13T05:19:53.663Z,97637.27
2023-03-13T05:23:15.070Z,97629.78
2023-03-13T05:26:37.051Z,97626.20
2023-03-13T05:29:51.581Z,97629.55
2023-03-13T05:33:19.636Z,97631.67
2023-03-13T05:36:38.466Z,97631.14
2023-03-13T05:39:58.550Z,97628.11
2023-03-13T05:43:20.907Z,97620.09
2023-03-13T05:46:41.236Z,97615.48
2023-03-13T05:50:03.099Z,97614.54
2023-03-13T05:53:04.813Z,97614.00
2023-03-13T05:56:27.299Z,97613.85
2023-03-13T05:59:51.851Z,97622.69
2023-03-13T06:03:14.230Z,97623.41
2023-03-13T06:06:18.221Z,97621.24
2023-03-13T06:09:24.146Z,97610.33
2023-03-13T06:12:27.227Z,97611.52
2023-03-13T06:15:28.969Z,97604.05
2023-03-13T06:18:41.250Z,97592.52
2023-03-13T06:21:43.081Z,97598.98
2023-03-13T06:24:46.212Z,97604.52
2023-03-13T06:27:47.874Z,97604.70
2023-03-13T06:30:49.664Z,97609.41
2023-03-13T06:33:55.655Z,97610.59
2023-03-13T06:36:58.165Z,97610.08
2023-03-13T06:39:59.964Z,97608.55
2023-03-13T06:43:01.754Z,97607.88
2023-03-13T06:46:04.706Z,97605.88
2023-03-13T06:49:07.663Z,97607.16
2023-03-13T06:52:09.422Z,97603.81
2023-03-13T06:55:12.218Z,97604.70
2023-03-13T06:58:30.618Z,97604.16
2023-03-13T07:01:33.663Z,97601.79
2023-03-13T07:04:35.330Z,97598.77
2023-03-13T07:07:37.176Z,97596.61
2023-03-13T07:10:38.860Z,97595.13
2023-03-13T07:13:40.721Z,97597.10
2023-03-13T07:16:43.218Z,97589.77
2023-03-13T07:19:45.109Z,97585.41
2023-03-13T07:22:51.679Z,97578.83
2023-03-13T07:25:55.581Z,97581.96
2023-03-13T07:28:57.296Z,97572.86
2023-03-13T07:31:59.031Z,97565.58
2023-03-13T07:35:02.800Z,97562.51
2023-03-13T07:38:04.483Z,97556.64
2023-03-13T07:41:06.269Z,97557.41
2023-03-13T07:44:08.255Z,97554.10
2023-03-13T07:47:10.340Z,97552.20
2023-03-13T07:50:12.670Z,97548.57
2023-03-13T07:53:20.348Z,97548.61
2023-03-13T07:56:23.827Z,97546.54
2023-03-13T07:59:25.830Z,97551.29
2023-03-13T08:02:28.667Z,97552.44
2023-03-13T08:05:33.999Z,97549.67
2023-03-13T08:08:37.119Z,97550.67
2023-03-13T08:11:43.929Z,97544.91
2023-03-13T08:14:45.844Z,97546.45
2023-03-13T08:17:47.639Z,97543.20
2023-03-13T08:20:49.861Z,97532.99
2023-03-13T08:23:57.275Z,97535.28
2023-03-13T08:26:59.108Z,97528.96
2023-03-13T08:30:00.882Z,97526.94
2023-03-13T08:33:02.871Z,97517.71
2023-03-13T08:36:24.425Z,97514.26
2023-03-13T08:39:26.562Z,97514.94
2023-03-13T08:42:28.279Z,97511.80
2023-03-13T08:45:30.069Z,97514.77
2023-03-13T08:48:31.937Z,97510.04
2023-03-13T08:51:35.444Z,97504.69
2023-03-13T08:54:37.283Z,97499.08
2023-03-13T08:57:39.110Z,97499.61
2023-03-13T09:00:40.893Z,97501.65
2023-03-13T09:03:43.129Z,97506.63
2023-03-13T09:06:44.862Z,97500.45
2023-03-13T09:09:46.686Z,97505.92
2023-03-13T09:12:48.510Z,97501.39
2023-03-13T09:16:19.827Z,97500.02
2023-03-13T09:19:21.739Z,97489.48
2023-03-13T09:22:23.526Z,97486.83
2023-03-13T09:25:25.470Z,97481.08
2023-03-13T09:28:27.863Z,97474.67
2023-03-13T09:31:30.755Z,97472.53
2023-03-13T09:34:32.762Z,97476.02
2023-03-13T09:37:34.510Z,97472.57
2023-03-13T09:40:48.641Z,97480.15
2023-03-13T09:44:13.479Z,97469.23
2023-03-13T09:47:42.272Z,97470.23
2023-03-13T09:50:53.845Z,97468.67
2023-03-13T09:54:10.792Z,97469.73
2023-03-13T09:57:15.986Z,97464.56
2023-03-13T10:00:32.396Z,97456.58
2023-03-13T10:03:44.118Z,97451.69
2023-03-13T10:06:48.274Z,97441.65
2023-03-13T10:09:50.152Z,97429.75
2023-03-13T10:13:02.993Z,97429.27
2023-03-13T10:16:09.514Z,97423.83
2023-03-13T10:19:17.002Z,97422.69
2023-03-13T10:22:24.629Z,97413.38
2023-03-13T10:25:33.793Z,97415.16
2023-03-13T10:28:35.594Z,97402.25
2023-03-13T10:31:39.162Z,97408.81
2023-03-13T10:34:57.556Z,97403.32
2023-03-13T10:38:16.972Z,97405.02
2023-03-13T10:41:33.856Z,97405.69
2023-03-13T10:44:35.652Z,97401.40
2023-03-13T10:47:37.977Z,97400.10
2023-03-13T10:50:46.761Z,97387.80
2023-03-13T10:53:49.149Z,97385.33
2023-03-13T10:56:51.607Z,97387.31
2023-03-13T10:59:54.369Z,97373.71
2023-03-13T11:02:56.414Z,97359.56
2023-03-13T11:06:03.130Z,97357.26
2023-03-13T11:09:13.854Z,97345.94
2023-03-13T11:12:20.456Z,97349.64
2023-03-13T11:15:30.143Z,97342.75
2023-03-13T11:18:58.392Z,97330.55
2023-03-13T11:22:16.963Z,97333.39
2023-03-13T11:25:43.084Z,97323.13
2023-03-13T11:28:53.824Z,97313.40
2023-03-13T11:32:05.687Z,97311.52
2023-03-13T11:35:45.720Z,97306.48
2023-03-13T11:39:27.987Z,97306.10
2023-03-13T11:42:54.474Z,97295.09
2023-03-13T11:46:11.382Z,97293.00
2023-03-13T11:49:18.525Z,97288.78
2023-03-13T11:52:29.497Z,97296.14
2023-03-13T11:55:40.047Z,97284.56
2023-03-13T11:58:53.628Z,97276.88
2023-03-13T12:02:15.301Z,97280.89
2023-03-13T12:05:20.808Z,97274.45
2023-03-13T12:08:52.568Z,97270.35
2023-03-13T12:12:02.946Z,97267.55
2023-03-13T12:15:13.867Z,97267.58
2023-03-13T12:18:33.309Z,97265.90
2023-03-13T12:21:42.193Z,97266.02
2023-03-13T12:24:53.158Z,97265.15
2023-03-13T12:28:04.292Z,97271.02
2023-03-13T12:31:17.008Z,97269.00
2023-03-13T12:34:25.013Z,97265.77
2023-03-13T12:37:48.789Z,97266.55
2023-03-13T12:41:19.460Z,97262.08
2023-03-13T12:44:23.284Z,97259.88
2023-03-13T12:47:32.326Z,97259.86
2023-03-13T12:50:56.607Z,97254.66
2023-03-13T12:54:21.250Z,97256.51
2023-03-13T12:57:44.647Z,97255.05
2023-03-13T13:00:49.615Z,97248.70
2023-03-13T13:04:05.203Z,97235.85
2023-03-13T13:07:21.009Z,97233.48
2023-03-13T13:10:27.004Z,97219.05
2023-03-13T13:13:31.301Z,97224.42
2023-03-13T13:16:33.611Z,97221.49
2023-03-13T13:19:41.051Z,97221.66
2023-03-13T13:22:47.206Z,97228.38
2023-03-13T13:25:49.578Z,97218.67
2023-03-13T13:28:53.896Z,97211.33
2023-03-13T13:31:59.675Z,97212.52
2023-03-13T13:35:34.061Z,97216.84
2023-03-13T13:38:42.784Z,97215.30
2023-03-13T13:41:44.765Z,97214.45
2023-03-13T13:45:14.514Z,97222.23
2023-03-13T13:48:22.334Z,97219.20
2023-03-13T13:51:24.986Z,97205.38
2023-03-13T13:54:29.821Z,97194.95
2023-03-13T13:57:36.577Z,97196.70
2023-03-13T14:00:40.843Z,97206.66
2023-03-13T14:03:43.206Z,97191.36
2023-03-13T14:06:50.227Z,97190.27
2023-03-13T14:09:57.372Z,97197.41
2023-03-13T14:13:00.914Z,97197.33
2023-03-13T14:16:32.642Z,97194.42
2023-03-13T14:19:41.624Z,97199.39
2023-03-13T14:22:47.975Z,97197.05
2023-03-13T14:25:50.650Z,97196.17
2023-03-13T14:28:56.855Z,97187.42
2023-03-13T14:31:59.508Z,97177.38
2023-03-13T14:35:02.086Z,97175.87
2023-03-13T14:38:03.998Z,97173.31
2023-03-13T14:41:05.884Z,97174.63
2023-03-13T14:44:30.087Z,97171.48
2023-03-13T14:47:32.612Z,97178.62
2023-03-13T14:50:34.815Z,97175.25
2023-03-13T14:53:36.832Z,97174.91
2023-03-13T14:56:41.723Z,97178.88
2023-03-13T14:59:43.912Z,97176.27
2023-03-13T15:02:45.754Z,97169.41
2023-03-13T15:05:50.325Z,97161.46
2023-03-13T15:09:14.610Z,97165.84
2023-03-13T15:12:20.114Z,97156.89
2023-03-13T15:15:21.956Z,97157.41
2023-03-13T15:18:29.643Z,97151.27
2023-03-13T15:21:34.582Z,97147.67
2023-03-13T15:24:36.301Z,97138.09
2023-03-13T15:31:30.386Z,97139.90
2023-03-13T15:34:34.852Z,97137.58
2023-03-13T15:37:36.878Z,97141.95
2023-03-13T15:40:38.682Z,97141.41
2023-03-13T15:43:40.467Z,97140.63
2023-03-13T15:46:42.505Z,97139.20
2023-03-13T15:49:44.184Z,97136.54
2023-03-13T15:52:46.190Z,97147.11
2023-03-13T15:55:49.213Z,97143.52
2023-03-13T15:58:51.218Z,97144.98
2023-03-13T16:01:52.938Z,97140.83
2023-03-13T16:04:57.996Z,97136.13
2023-03-13T16:07:59.988Z,97136.37
2023-03-13T16:11:06.977Z,97132.13
2023-03-13T16:14:08.760Z,97131.87
2023-03-13T16:17:15.522Z,97129.23
2023-03-13T16:20:21.038Z,97121.69
2023-03-13T16:23:22.898Z,97112.89
2023-03-13T16:26:27.925Z,97112.95
2023-03-13T16:29:30.713Z,97111.30
2023-03-13T16:32:32.591Z,97114.30
2023-03-13T16:35:34.811Z,97107.86
2023-03-13T16:38:36.522Z,97100.77
2023-03-13T16:41:38.317Z,97106.58
2023-03-13T16:44:40.336Z,97103.20
2023-03-13T16:47:43.096Z,97110.41
2023-03-13T16:50:46.013Z,97113.57
2023-03-13T16:53:50.114Z,97112.70
2023-03-13T16:56:51.969Z,97118.10
2023-03-13T16:59:53.861Z,97124.48
2023-03-13T17:02:58.680Z,97115.59
2023-03-13T17:06:00.971Z,97108.84
2023-03-13T17:09:10.293Z,97101.77
2023-03-13T17:12:12.157Z,97097.55
2023-03-13T17:15:14.161Z,97103.11
2023-03-13T17:18:16.821Z,97108.38
2023-03-13T17:21:22.009Z,97109.89
2023-03-13T17:24:27.285Z,97103.36
2023-03-13T17:27:31.467Z,97092.70
2023-03-13T17:30:34.033Z,97086.73
2023-03-13T17:33:36.724Z,97087.54
2023-03-13T17:36:43.951Z,97084.52
2023-03-13T17:39:46.688Z,97080.66
2023-03-13T17:42:51.444Z,97080.20
2023-03-13T17:45:55.674Z,97078.79
2023-03-13T17:49:00.471Z,97067.84
2023-03-13T17:52:03.395Z,97065.04
2023-03-13T17:55:07.892Z,97066.59
2023-03-13T17:58:10.633Z,97066.63
2023-03-13T18:01:14.308Z,97065.79
2023-03-13T18:10:24.459Z,97041.20
2023-03-13T18:13:28.161Z,97036.15
2023-03-13T18:16:43.348Z,97037.11
2023-03-13T18:19:47.909Z,97032.96
2023-03-13T18:22:51.376Z,97023.73
2023-03-13T18:25:57.978Z,97012.98
2023-03-13T18:29:03.378Z,97013.48
2023-03-13T18:32:07.700Z,97015.27
2023-03-13T18:35:13.632Z,97016.60
2023-03-13T18:38:19.179Z,97016.81
2023-03-13T18:41:23.017Z,97015.95
2023-03-13T18:44:26.472Z,97003.29
2023-03-13T18:47:29.776Z,97001.03
2023-03-13T18:50:32.904Z,97005.19
2023-03-13T18:53:36.464Z,97003.74
2023-03-13T18:56:40.014Z,97002.20
2023-03-13T18:59:44.235Z,97007.07
2023-03-13T19:02:47.509Z,97013.27
2023-03-13T19:05:50.798Z,97009.20
2023-03-13T19:08:57.593Z,97010.21
2023-03-13T19:12:00.950Z,97003.86
2023-03-13T19:15:04.279Z,96998.44
2023-03-13T19:18:11.846Z,96999.15
2023-03-13T19:21:26.622Z,96997.17
2023-03-13T19:24:29.830Z,96997.52
2023-03-13T19:27:33.240Z,96986.88
2023-03-13T19:30:36.944Z,96981.83
2023-03-13T19:33:40.452Z,96982.80
2023-03-13T19:36:48.748Z,96976.35
2023-03-13T19:39:51.893Z,96976.23
2023-03-13T19:42:55.156Z,96976.20
2023-03-13T19:45:58.321Z,96969.96
2023-03-13T19:49:02.428Z,96971.05
2023-03-13T19:52:05.541Z,96970.57
2023-03-13T19:55:08.916Z,96962.02
2023-03-13T19:58:12.901Z,96947.41
2023-03-13T20:01:18.001Z,96943.64
2023-03-13T20:04:21.752Z,96942.52
2023-03-13T20:07:24.908Z,96941.38
2023-03-13T20:10:27.966Z,96936.46
2023-03-13T20:13:31.069Z,96933.86
2023-03-13T20:16:35.291Z,96937.60
2023-03-13T20:19:38.532Z,96940.48
2023-03-13T20:22:41.724Z,96935.80
2023-03-13T20:25:44.880Z,96932.38
2023-03-13T20:28:52.041Z,96929.02
2023-03-13T20:31:55.963Z,96929.17
2023-03-13T20:34:59.067Z,96935.27
2023-03-13T20:38:05.023Z,96922.10
2023-03-13T20:41:08.895Z,96909.09
2023-03-13T20:44:12.037Z,96891.86
2023-03-13T20:47:15.208Z,96891.27
2023-03-13T20:50:19.725Z,96895.80
2023-03-13T20:53:26.408Z,96899.31
2023-03-13T20:56:29.512Z,96905.05
2023-03-13T20:59:32.580Z,96903.56
2023-03-13T21:02:35.720Z,96905.00
2023-03-13T21:05:39.892Z,96896.80
2023-03-13T21:08:43.898Z,96897.92
2023-03-13T21:11:47.203Z,96900.73
2023-03-13T21:14:53.541Z,96896.26
2023-03-13T21:17:56.948Z,96888.77
2023-03-13T21:21:03.291Z,96887.55
2023-03-13T21:24:06.751Z,96885.41
2023-03-13T21:27:09.878Z,96891.11
2023-03-13T21:30:17.510Z,96890.86
2023-03-13T21:33:20.639Z,96887.47
2023-03-13T21:36:23.939Z,96888.55
2023-03-13T21:39:27.191Z,96886.20
2023-03-13T21:42:30.393Z,96890.22
2023-03-13T21:45:34.791Z,96879.88
2023-03-13T21:48:42.168Z,96863.54
2023-03-13T21:51:45.338Z,96869.77
2023-03-13T21:54:49.122Z,96852.34
2023-03-13T21:57:52.264Z,96842.87
2023-03-13T22:00:57.203Z,96841.01
2023-03-13T22:04:00.397Z,96845.20
2023-03-13T22:07:04.023Z,96841.44
2023-03-13T22:10:07.496Z,96837.14
2023-03-13T22:13:10.822Z,96825.23
2023-03-13T22:16:13.951Z,96823.11
2023-03-13T22:19:20.371Z,96818.38
2023-03-13T22:22:23.491Z,96813.02
2023-03-13T22:25:26.607Z,96809.60
2023-03-13T22:28:29.731Z,96800.06
2023-03-13T22:31:33.010Z,96803.14
2023-03-13T22:34:36.234Z,96800.66
2023-03-13T22:37:39.374Z,96803.89
2023-03-13T22:40:42.492Z,96796.70
2023-03-13T22:43:45.577Z,96795.63
2023-03-13T22:46:48.717Z,96791.13
2023-03-13T22:49:53.536Z,96786.77
2023-03-13T22:52:56.581Z,96792.34
2023-03-13T22:55:59.841Z,96797.54
2023-03-13T22:59:03.694Z,96794.36
2023-03-13T23:02:06.786Z,96790.69
2023-03-13T23:05:10.520Z,96783.52
2023-03-13T23:08:15.578Z,96773.89
2023-03-13T23:11:19.504Z,96773.55
2023-03-13T23:14:22.644Z,96769.08
2023-03-13T23:17:27.111Z,96760.92
2023-03-13T23:20:30.519Z,96759.16
2023-03-13T23:23:34.518Z,96749.72
2023-03-13T23:26:37.736Z,96735.66
2023-03-13T23:29:40.886Z,96731.23
2023-03-13T23:32:46.696Z,96728.50
2023-03-13T23:35:49.913Z,96720.31
2023-03-13T23:38:54.122Z,96718.20
2023-03-13T23:41:57.802Z,96720.55
2023-03-13T23:45:02.553Z,96725.84
2023-03-13T23:48:05.827Z,96727.40
2023-03-13T23:51:09.089Z,96732.45
2023-03-13T23:54:12.208Z,96725.46
2023-03-13T23:57:15.275Z,96723.27
